Bellview, Texas
Current Conditions -  °F | °C
As of 12:55 AM on Monday 24 Nov 2014 (Local Time) from K11R Reporting Station
Clear Clear  
Wind Chill: 58°   Ceiling: Unl
Heat Index: 58°   Visibility: 10mi
Dew Point: 43°   Wind: 16mph
Humidity: 58%   Direction: 340°NNW
Pressure: 29.85"   Gusts: 20mph
Location:  29.9944°N, 96.2595°W
Report Text: K11R 240655Z AUTO 34014G17KT 10SM CLR 15/06 A2985 RMK AO2 T01450062
Loading
Personal Weather Stations






























Interactive Weather Map New forecast layout! Learn more

10-Day Weather Forecast

Advertisements
Track Severe Weather on mobile